Ewaterfrd, Pennsylvania
Current Conditions -  °F | °C
As of 10:53 PM on Monday 20 Oct 2014 (Local Time) from KAOO Reporting Station
Overcast Overcast  
Wind Chill: 47°   Ceiling: 7500
Heat Index: 49°   Visibility: 10mi
Dew Point: 42°   Wind: 5mph
Humidity: 77%   Direction: 210°SSW
Pressure: 29.91"   Gusts: NA
Location:  40.3617°N, 77.6745°W
Report Text: KAOO 210253Z AUTO 21004KT 10SM SCT050 OVC075 09/06 A2991 RMK AO2 RAB31E42 SLP132 P0000 60000 T00940056 58003
Loading
Personal Weather Stations






























Interactive Weather Map
Tropical Storm Tracking
New forecast layout! Learn more

10-Day Weather Forecast

Advertisements
Track Severe Weather on mobile